Terminal Aerodrome Forecast
Issued by NWS Charleston, WV

Current Version | Previous Version | Text Only | Print | Product List | Glossary Off
Versions: 1 2 3 4 5 6 7 8 9 10 11 12 13 14 15 16 17 18 19 20 21 22 23 24 25

911
FTUS41 KRLX 100911 AAA
TAFEKN
TAF AMD
KEKN 100911Z 1009/1106 27010G19KT 4SM -SHSN OVC020
      TEMPO 1009/1010 2SM -SHSN OVC012
     FM101000 25009KT 3SM -SHSN OVC015
     FM101700 27011G19KT 3SM -SHSN OVC025
     FM102000 27011G19KT 2SM -SHSN OVC015
     FM110300 28011G24KT 1SM -SHSN SCT001 OVC012=

USA.gov is the U.S. government's official web portal to all federal, state and local government web resources and services.